createdAt,value
2024-05-09T00:00:08.322Z,38.32
2024-05-09T00:01:06.427Z,38.35
2024-05-09T00:02:06.430Z,38.33
2024-05-09T00:03:06.461Z,38.31
2024-05-09T00:04:06.513Z,38.29
2024-05-09T00:05:06.542Z,38.32
2024-05-09T00:06:06.424Z,38.31
2024-05-09T00:07:06.456Z,38.28
2024-05-09T00:08:06.586Z,38.28
2024-05-09T00:09:06.426Z,38.28
2024-05-09T00:10:11.622Z,38.29
2024-05-09T00:11:07.482Z,38.30
2024-05-09T00:12:06.545Z,38.29
2024-05-09T00:13:06.875Z,38.29
2024-05-09T00:14:06.451Z,38.27
2024-05-09T00:15:06.433Z,38.28
2024-05-09T00:16:06.428Z,38.27
2024-05-09T00:17:06.514Z,38.26
2024-05-09T00:18:07.374Z,38.25
2024-05-09T00:19:06.551Z,38.24
2024-05-09T00:20:14.286Z,38.25
2024-05-09T00:21:07.573Z,38.26
2024-05-09T00:22:06.450Z,38.23
2024-05-09T00:23:06.512Z,38.23
2024-05-09T00:24:06.467Z,38.24
2024-05-09T00:25:06.457Z,38.25
2024-05-09T00:26:06.530Z,38.25
2024-05-09T00:27:06.511Z,38.22
2024-05-09T00:28:06.466Z,38.23
2024-05-09T00:29:06.530Z,38.22
2024-05-09T00:30:07.414Z,38.22
2024-05-09T00:31:06.435Z,38.20
2024-05-09T00:32:06.541Z,38.22
2024-05-09T00:33:07.895Z,38.20
2024-05-09T00:34:06.507Z,38.22
2024-05-09T00:35:06.491Z,38.19
2024-05-09T00:36:06.465Z,38.22
2024-05-09T00:37:06.504Z,38.19
2024-05-09T00:38:06.721Z,38.20
2024-05-09T00:39:06.501Z,38.18
2024-05-09T00:40:09.556Z,38.20
2024-05-09T00:41:07.558Z,38.21
2024-05-09T00:42:06.480Z,38.18
2024-05-09T00:43:06.546Z,38.19
2024-05-09T00:44:06.565Z,38.17
2024-05-09T00:45:06.514Z,38.17
2024-05-09T00:46:06.471Z,38.17
2024-05-09T00:47:06.677Z,38.18
2024-05-09T00:48:08.178Z,38.15
2024-05-09T00:49:06.535Z,38.16
2024-05-09T00:50:10.134Z,38.15
2024-05-09T00:51:07.607Z,38.17
2024-05-09T00:52:06.526Z,38.16
2024-05-09T00:53:06.952Z,38.14
2024-05-09T00:54:06.519Z,38.14
2024-05-09T00:55:06.509Z,38.15
2024-05-09T00:56:07.238Z,38.15
2024-05-09T00:57:06.560Z,38.15
2024-05-09T00:58:06.533Z,38.13
2024-05-09T00:59:06.506Z,38.12
2024-05-09T01:00:12.215Z,38.12
2024-05-09T01:01:07.566Z,38.12
2024-05-09T01:02:06.615Z,38.12
2024-05-09T01:03:06.873Z,38.12
2024-05-09T01:04:06.576Z,38.12
2024-05-09T01:05:06.618Z,38.10
2024-05-09T01:06:06.534Z,38.11
2024-05-09T01:07:06.571Z,38.11
2024-05-09T01:08:06.644Z,38.10
2024-05-09T01:09:06.547Z,38.09
2024-05-09T01:10:11.740Z,38.09
2024-05-09T01:11:07.586Z,38.10
2024-05-09T01:12:06.620Z,38.09
2024-05-09T01:13:07.064Z,38.09
2024-05-09T01:14:06.598Z,38.09
2024-05-09T01:15:06.531Z,38.08
2024-05-09T01:16:06.540Z,38.07
2024-05-09T01:17:06.608Z,38.07
2024-05-09T01:18:06.775Z,38.07
2024-05-09T01:19:06.659Z,38.06
2024-05-09T01:20:10.770Z,38.06
2024-05-09T01:21:07.604Z,38.06
2024-05-09T01:22:06.653Z,38.06
2024-05-09T01:23:06.604Z,38.05
2024-05-09T01:24:06.564Z,38.06
2024-05-09T01:25:06.569Z,38.07
2024-05-09T01:26:06.658Z,38.04
2024-05-09T01:27:06.578Z,38.05
2024-05-09T01:28:06.611Z,38.04
2024-05-09T01:29:06.641Z,38.04
2024-05-09T01:30:09.555Z,38.04
2024-05-09T01:31:07.586Z,38.01
2024-05-09T01:32:06.764Z,38.04
2024-05-09T01:33:08.823Z,38.03
2024-05-09T01:34:06.666Z,38.03
2024-05-09T01:35:06.638Z,38.05
2024-05-09T01:36:06.596Z,38.02
2024-05-09T01:37:06.618Z,38.01
2024-05-09T01:38:06.729Z,38.02
2024-05-09T01:39:06.589Z,38.03
2024-05-09T01:40:09.725Z,38.02
2024-05-09T01:41:07.624Z,38.03
2024-05-09T01:42:06.608Z,38.03
2024-05-09T01:43:06.816Z,38.02
2024-05-09T01:44:06.624Z,38.02
2024-05-09T01:45:06.602Z,38.00
2024-05-09T01:46:06.598Z,38.00
2024-05-09T01:47:06.706Z,38.00
2024-05-09T01:48:06.977Z,38.00
2024-05-09T01:49:06.914Z,37.98
2024-05-09T01:50:09.111Z,37.98
2024-05-09T01:51:06.715Z,38.00
2024-05-09T01:52:06.619Z,37.99
2024-05-09T01:53:06.718Z,37.96
2024-05-09T01:54:06.618Z,37.99
2024-05-09T01:55:06.979Z,37.98
2024-05-09T01:56:06.703Z,37.99
2024-05-09T01:57:06.638Z,37.97
2024-05-09T01:58:06.606Z,37.96
2024-05-09T01:59:06.798Z,37.97
2024-05-09T02:00:07.928Z,37.97
2024-05-09T02:01:06.670Z,37.97
2024-05-09T02:02:06.754Z,37.98
2024-05-09T02:03:06.869Z,37.96
2024-05-09T02:04:06.981Z,37.95
2024-05-09T02:05:06.920Z,37.95
2024-05-09T02:06:06.857Z,37.95
2024-05-09T02:07:06.714Z,37.96
2024-05-09T02:08:06.666Z,37.94
2024-05-09T02:09:06.658Z,37.96
2024-05-09T02:10:13.738Z,37.94
2024-05-09T02:11:07.731Z,37.95
2024-05-09T02:12:06.877Z,37.95
2024-05-09T02:13:06.659Z,37.95
2024-05-09T02:14:06.684Z,37.95
2024-05-09T02:15:06.650Z,37.95
2024-05-09T02:16:06.674Z,37.94
2024-05-09T02:17:06.771Z,37.93
2024-05-09T02:18:06.962Z,37.92
2024-05-09T02:19:06.741Z,37.93
2024-05-09T02:20:06.735Z,37.94
2024-05-09T02:21:06.816Z,37.92
2024-05-09T02:22:06.690Z,37.91
2024-05-09T02:23:07.224Z,37.90
2024-05-09T02:24:06.671Z,37.92
2024-05-09T02:25:06.688Z,37.95
2024-05-09T02:26:06.789Z,37.91
2024-05-09T02:27:06.746Z,37.90
2024-05-09T02:28:06.685Z,37.90
2024-05-09T02:29:06.757Z,37.90
2024-05-09T02:30:18.305Z,37.90
2024-05-09T02:31:07.695Z,37.90
2024-05-09T02:32:07.000Z,37.89
2024-05-09T02:33:07.153Z,37.90
2024-05-09T02:34:06.836Z,37.91
2024-05-09T02:35:06.740Z,37.89
2024-05-09T02:36:06.676Z,37.89
2024-05-09T02:37:06.747Z,37.87
2024-05-09T02:38:06.820Z,37.89
2024-05-09T02:39:06.688Z,37.89
2024-05-09T02:40:09.265Z,37.87
2024-05-09T02:41:06.747Z,37.89
2024-05-09T02:42:06.725Z,37.89
2024-05-09T02:43:07.118Z,37.90
2024-05-09T02:44:06.735Z,37.86
2024-05-09T02:45:06.724Z,37.88
2024-05-09T02:46:06.744Z,37.87
2024-05-09T02:47:06.942Z,37.89
2024-05-09T02:48:07.111Z,37.86
2024-05-09T02:49:06.812Z,37.85
2024-05-09T02:50:08.212Z,37.86
2024-05-09T02:51:06.858Z,37.87
2024-05-09T02:52:06.727Z,37.85
2024-05-09T02:53:06.773Z,37.86
2024-05-09T02:54:06.735Z,37.85
2024-05-09T02:55:06.735Z,37.86
2024-05-09T02:56:06.804Z,37.86
2024-05-09T02:57:06.788Z,37.85
2024-05-09T02:58:06.764Z,37.84
2024-05-09T02:59:06.811Z,37.83
2024-05-09T03:00:14.943Z,37.84
2024-05-09T03:01:07.780Z,37.85
2024-05-09T03:02:06.834Z,37.84
2024-05-09T03:03:07.055Z,37.85
2024-05-09T03:04:06.953Z,37.85
2024-05-09T03:05:06.781Z,37.82
2024-05-09T03:06:06.776Z,37.84
2024-05-09T03:07:06.809Z,37.81
2024-05-09T03:08:06.839Z,37.82
2024-05-09T03:09:06.786Z,37.81
2024-05-09T03:10:12.232Z,37.82
2024-05-09T03:11:07.881Z,37.83
2024-05-09T03:12:06.883Z,37.81
2024-05-09T03:13:06.801Z,37.81
2024-05-09T03:14:06.924Z,37.83
2024-05-09T03:15:06.780Z,37.81
2024-05-09T03:16:06.783Z,37.80
2024-05-09T03:17:06.981Z,37.81
2024-05-09T03:18:07.310Z,37.81
2024-05-09T03:19:06.841Z,37.79
2024-05-09T03:20:11.666Z,37.79
2024-05-09T03:21:07.812Z,37.78
2024-05-09T03:22:06.793Z,37.78
2024-05-09T03:23:06.866Z,37.81
2024-05-09T03:24:06.847Z,37.76
2024-05-09T03:25:06.792Z,37.77
2024-05-09T03:26:06.882Z,37.80
2024-05-09T03:27:06.856Z,37.77
2024-05-09T03:28:06.835Z,37.81
2024-05-09T03:29:06.895Z,37.79
2024-05-09T03:30:07.667Z,37.77
2024-05-09T03:31:06.833Z,37.78
2024-05-09T03:32:06.916Z,37.79
2024-05-09T03:33:07.118Z,37.78
2024-05-09T03:34:06.889Z,37.78
2024-05-09T03:35:06.865Z,37.75
2024-05-09T03:36:09.812Z,37.76
2024-05-09T03:37:06.897Z,37.75
2024-05-09T03:38:06.861Z,37.77
2024-05-09T03:39:06.845Z,37.76
2024-05-09T03:40:09.420Z,37.76
2024-05-09T03:41:08.154Z,37.78
2024-05-09T03:42:06.869Z,37.75
2024-05-09T03:43:06.857Z,37.77
2024-05-09T03:44:06.925Z,37.75
2024-05-09T03:45:06.989Z,37.75
2024-05-09T03:46:06.854Z,37.76
2024-05-09T03:47:07.012Z,37.74
2024-05-09T03:48:06.957Z,37.74
2024-05-09T03:49:06.979Z,37.73
2024-05-09T03:50:14.983Z,37.74
2024-05-09T03:51:07.991Z,37.75
2024-05-09T03:52:06.896Z,37.75
2024-05-09T03:53:06.949Z,37.73
2024-05-09T03:54:06.866Z,37.71
2024-05-09T03:55:06.861Z,37.74
2024-05-09T03:56:06.880Z,37.72
2024-05-09T03:57:06.893Z,37.74
2024-05-09T03:58:06.893Z,37.74
2024-05-09T03:59:06.902Z,37.73
2024-05-09T04:00:14.475Z,37.73
2024-05-09T04:01:07.997Z,37.75
2024-05-09T04:02:06.975Z,37.71
2024-05-09T04:03:09.016Z,37.72
2024-05-09T04:04:06.895Z,37.72
2024-05-09T04:05:06.904Z,37.72
2024-05-09T04:06:06.903Z,37.72
2024-05-09T04:07:06.940Z,37.70
2024-05-09T04:08:07.021Z,37.72
2024-05-09T04:09:06.901Z,37.72
2024-05-09T04:10:11.044Z,37.71
2024-05-09T04:11:07.063Z,37.71
2024-05-09T04:12:06.999Z,37.70
2024-05-09T04:13:06.921Z,37.71
2024-05-09T04:14:06.905Z,37.72
2024-05-09T04:15:09.660Z,37.69
2024-05-09T04:16:07.926Z,37.70
2024-05-09T04:17:06.978Z,37.69
2024-05-09T04:18:07.291Z,37.69
2024-05-09T04:19:07.106Z,37.72
2024-05-09T04:20:08.617Z,37.69
2024-05-09T04:21:06.975Z,37.70
2024-05-09T04:22:06.959Z,37.69
2024-05-09T04:23:08.065Z,37.69
2024-05-09T04:24:06.916Z,37.71
2024-05-09T04:25:06.928Z,37.68
2024-05-09T04:26:06.959Z,37.69
2024-05-09T04:27:07.000Z,37.69
2024-05-09T04:28:06.949Z,37.68
2024-05-09T04:29:07.081Z,37.69
2024-05-09T04:30:10.106Z,37.66
2024-05-09T04:31:19.085Z,37.76
2024-05-09T04:32:19.106Z,37.71
2024-05-09T04:33:19.339Z,37.70
2024-05-09T04:34:19.106Z,37.71
2024-05-09T04:35:19.094Z,37.70
2024-05-09T04:36:19.069Z,37.70
2024-05-09T04:37:19.086Z,37.67
2024-05-09T04:38:19.153Z,37.67
2024-05-09T04:39:19.068Z,37.67
2024-05-09T04:40:27.813Z,37.68
2024-05-09T04:41:20.162Z,37.68
2024-05-09T04:42:19.117Z,37.68
2024-05-09T04:43:19.240Z,37.67
2024-05-09T04:44:19.186Z,37.68
2024-05-09T04:45:19.095Z,37.68
2024-05-09T04:46:19.091Z,37.66
2024-05-09T04:47:19.218Z,37.67
2024-05-09T04:48:19.288Z,37.64
2024-05-09T04:49:19.179Z,37.64
2024-05-09T04:50:29.035Z,37.63
2024-05-09T04:51:20.091Z,37.66
2024-05-09T04:52:19.187Z,37.64
2024-05-09T04:53:19.160Z,37.66
2024-05-09T04:55:19.098Z,37.69
2024-05-09T04:56:19.189Z,37.68
2024-05-09T04:57:19.112Z,37.71
2024-05-09T04:58:19.143Z,37.72
2024-05-09T04:59:19.166Z,37.74
2024-05-09T05:00:28.574Z,37.76
2024-05-09T05:01:20.139Z,37.80
2024-05-09T05:02:19.203Z,37.81
2024-05-09T05:03:19.380Z,37.83
2024-05-09T05:04:19.180Z,37.85
2024-05-09T05:05:19.234Z,37.84
2024-05-09T05:06:19.138Z,37.90
2024-05-09T05:07:19.117Z,37.91
2024-05-09T05:08:19.654Z,37.94
2024-05-09T05:09:19.148Z,37.95
2024-05-09T05:10:25.434Z,37.98
2024-05-09T05:11:20.235Z,38.01
2024-05-09T05:12:19.425Z,38.02
2024-05-09T05:13:20.377Z,38.05
2024-05-09T05:14:19.170Z,38.08
2024-05-09T05:15:19.159Z,38.08
2024-05-09T05:16:19.211Z,38.07
2024-05-09T05:17:19.267Z,38.10
2024-05-09T05:18:19.662Z,38.14
2024-05-09T05:19:19.349Z,38.14
2024-05-09T05:20:27.386Z,38.15
2024-05-09T05:21:20.494Z,38.19
2024-05-09T05:22:19.324Z,38.17
2024-05-09T05:23:19.380Z,38.21
2024-05-09T05:24:19.342Z,38.23
2024-05-09T05:25:19.322Z,38.24
2024-05-09T05:26:19.349Z,38.27
2024-05-09T05:27:19.350Z,38.30
2024-05-09T05:28:19.327Z,38.31
2024-05-09T05:29:20.809Z,38.27
2024-05-09T05:30:25.059Z,38.32
2024-05-09T05:31:20.369Z,38.33
2024-05-09T05:32:19.627Z,38.32
2024-05-09T05:33:19.933Z,38.32
2024-05-09T05:34:19.346Z,38.37
2024-05-09T05:35:19.420Z,38.33
2024-05-09T05:36:19.343Z,38.33
2024-05-09T05:37:19.340Z,38.36
2024-05-09T05:38:21.293Z,38.37
2024-05-09T05:39:19.343Z,38.34
2024-05-09T05:40:28.143Z,38.37
2024-05-09T05:41:20.428Z,38.40
2024-05-09T05:42:19.383Z,38.40
2024-05-09T05:43:19.406Z,38.41
2024-05-09T05:44:19.387Z,38.42
2024-05-09T05:45:19.343Z,38.44
2024-05-09T05:46:19.350Z,38.45
2024-05-09T05:47:19.409Z,38.43
2024-05-09T05:48:19.971Z,38.43
2024-05-09T05:49:19.631Z,38.44
2024-05-09T05:50:27.363Z,38.44
2024-05-09T05:51:20.464Z,38.47
2024-05-09T05:52:19.399Z,38.44
2024-05-09T05:53:19.602Z,38.48
2024-05-09T05:54:19.382Z,38.48
2024-05-09T05:55:19.374Z,38.46
2024-05-09T05:56:19.478Z,38.50
2024-05-09T05:57:19.389Z,38.50
2024-05-09T05:58:19.374Z,38.55
2024-05-09T05:59:19.514Z,38.51
2024-05-09T06:00:29.188Z,38.48
2024-05-09T06:01:20.436Z,38.53
2024-05-09T06:02:19.564Z,38.47
2024-05-09T06:03:19.453Z,38.45
2024-05-09T06:04:19.431Z,38.49
2024-05-09T06:05:19.443Z,38.51
2024-05-09T06:06:19.391Z,38.47
2024-05-09T06:07:19.397Z,38.46
2024-05-09T06:08:19.480Z,38.50
2024-05-09T06:09:19.398Z,38.48
2024-05-09T06:10:25.415Z,38.49
2024-05-09T06:11:20.520Z,38.47
2024-05-09T06:12:19.564Z,38.45
2024-05-09T06:13:19.416Z,38.43
2024-05-09T06:14:19.450Z,38.45
2024-05-09T06:15:19.407Z,38.44
2024-05-09T06:16:19.430Z,38.43
2024-05-09T06:17:19.517Z,38.45
2024-05-09T06:18:19.776Z,38.45
2024-05-09T06:19:20.515Z,38.46
2024-05-09T06:20:24.059Z,38.38
2024-05-09T06:21:20.564Z,38.44
2024-05-09T06:22:19.443Z,38.40
2024-05-09T06:23:19.497Z,38.44
2024-05-09T06:24:19.429Z,38.45
2024-05-09T06:25:19.447Z,38.47
2024-05-09T06:26:19.506Z,38.47
2024-05-09T06:27:19.445Z,38.43
2024-05-09T06:28:19.442Z,38.43
2024-05-09T06:29:19.496Z,38.43
2024-05-09T06:31:19.425Z,38.44
2024-05-09T06:32:19.625Z,38.43
2024-05-09T06:33:19.669Z,38.44
2024-05-09T06:34:19.628Z,38.42
2024-05-09T06:35:19.489Z,38.40
2024-05-09T06:36:19.424Z,38.41
2024-05-09T06:37:19.444Z,38.43
2024-05-09T06:38:19.558Z,38.42
2024-05-09T06:39:19.468Z,38.39
2024-05-09T06:40:25.676Z,38.38
2024-05-09T06:41:20.544Z,38.43
2024-05-09T06:42:19.449Z,38.38
2024-05-09T06:43:20.050Z,38.38
2024-05-09T06:44:19.701Z,38.39
2024-05-09T06:45:19.487Z,38.36
2024-05-09T06:46:19.464Z,38.37
2024-05-09T06:47:19.542Z,38.35
2024-05-09T06:48:20.063Z,38.35
2024-05-09T06:49:19.626Z,38.34
2024-05-09T06:50:24.015Z,38.34
2024-05-09T06:51:20.538Z,38.35
2024-05-09T06:52:19.505Z,38.35
2024-05-09T06:53:19.490Z,38.35
2024-05-09T06:54:19.454Z,38.36
2024-05-09T06:55:19.496Z,38.34
2024-05-09T06:56:19.509Z,38.35
2024-05-09T06:57:19.475Z,38.33
2024-05-09T06:58:19.511Z,38.32
2024-05-09T06:59:19.606Z,38.33
2024-05-09T07:00:27.438Z,38.33
2024-05-09T07:01:20.527Z,38.31
2024-05-09T07:02:19.551Z,38.30
2024-05-09T07:03:19.970Z,38.29
2024-05-09T07:04:19.584Z,38.33
2024-05-09T07:05:19.559Z,38.31
2024-05-09T07:06:19.477Z,38.31
2024-05-09T07:07:19.489Z,38.30
2024-05-09T07:08:19.848Z,38.33
2024-05-09T07:09:19.505Z,38.32
2024-05-09T07:10:28.368Z,38.33
2024-05-09T07:11:20.571Z,38.34
2024-05-09T07:12:19.581Z,38.33
2024-05-09T07:13:19.502Z,38.32
2024-05-09T07:14:19.505Z,38.29
2024-05-09T07:15:19.494Z,38.31
2024-05-09T07:16:19.518Z,38.29
2024-05-09T07:17:19.535Z,38.30
2024-05-09T07:18:20.416Z,38.31
2024-05-09T07:19:19.681Z,38.28
2024-05-09T07:20:27.816Z,38.28
2024-05-09T07:21:20.593Z,38.28
2024-05-09T07:22:19.566Z,38.27
2024-05-09T07:23:19.750Z,38.26
2024-05-09T07:24:19.501Z,38.25
2024-05-09T07:25:19.604Z,38.24
2024-05-09T07:26:19.671Z,38.23
2024-05-09T07:27:19.517Z,38.23
2024-05-09T07:28:19.773Z,38.21
2024-05-09T07:29:19.570Z,38.20
2024-05-09T07:30:26.985Z,38.19
2024-05-09T07:31:20.547Z,38.19
2024-05-09T07:32:19.652Z,38.17
2024-05-09T07:33:20.560Z,38.14
2024-05-09T07:34:19.977Z,38.12
2024-05-09T07:35:19.939Z,38.12
2024-05-09T07:36:19.835Z,38.09
2024-05-09T07:37:19.865Z,38.11
2024-05-09T07:38:20.117Z,38.07
2024-05-09T07:39:19.948Z,38.06
2024-05-09T07:40:28.607Z,38.05
2024-05-09T07:41:21.125Z,38.05
2024-05-09T07:42:19.967Z,37.99
2024-05-09T07:43:19.995Z,37.96
2024-05-09T07:44:20.023Z,37.92
2024-05-09T07:45:39.915Z,37.90
2024-05-09T07:48:29.268Z,37.91
2024-05-09T07:53:38.545Z,37.81
2024-05-09T07:54:21.139Z,37.83
2024-05-09T07:55:20.169Z,37.77
2024-05-09T07:56:22.507Z,37.75
2024-05-09T07:57:20.035Z,37.76
2024-05-09T07:58:20.003Z,37.78
2024-05-09T07:59:20.029Z,37.76
2024-05-09T08:00:26.827Z,37.72
2024-05-09T08:01:21.476Z,37.75
2024-05-09T08:02:20.207Z,37.74
2024-05-09T08:03:20.113Z,37.75
2024-05-09T08:04:21.319Z,37.71
2024-05-09T08:05:20.157Z,37.73
2024-05-09T08:06:20.036Z,37.72
2024-05-09T08:07:20.142Z,37.72
2024-05-09T08:08:20.274Z,37.71
2024-05-09T08:09:21.496Z,37.73
2024-05-09T08:10:24.659Z,37.75
2024-05-09T08:11:21.158Z,37.74
2024-05-09T08:12:20.120Z,37.72
2024-05-09T08:13:20.208Z,37.73
2024-05-09T08:14:20.114Z,37.70
2024-05-09T08:15:20.125Z,37.70
2024-05-09T08:16:20.263Z,37.71
2024-05-09T08:17:20.135Z,37.71
2024-05-09T08:18:20.347Z,37.67
2024-05-09T08:19:20.283Z,37.66
2024-05-09T08:20:30.091Z,37.65
2024-05-09T08:21:21.136Z,37.71
2024-05-09T08:22:20.207Z,37.69
2024-05-09T08:23:20.112Z,37.70
2024-05-09T08:24:20.132Z,37.69
2024-05-09T08:25:20.164Z,37.69
2024-05-09T08:26:20.123Z,37.65
2024-05-09T08:27:20.112Z,37.65
2024-05-09T08:28:20.181Z,37.66
2024-05-09T08:29:20.134Z,37.65
2024-05-09T08:30:25.384Z,37.64
2024-05-09T08:31:21.253Z,37.68
2024-05-09T08:32:20.176Z,37.66
2024-05-09T08:33:20.253Z,37.64
2024-05-09T08:34:20.291Z,37.65
2024-05-09T08:35:20.142Z,37.67
2024-05-09T08:36:20.172Z,37.66
2024-05-09T08:37:23.395Z,37.65
2024-05-09T08:38:21.156Z,37.66
2024-05-09T08:39:20.132Z,37.65
2024-05-09T08:40:28.099Z,37.64
2024-05-09T08:41:21.164Z,37.65
2024-05-09T08:42:20.143Z,37.61
2024-05-09T08:43:20.383Z,37.60
2024-05-09T08:44:20.158Z,37.61
2024-05-09T08:45:20.168Z,37.58
2024-05-09T08:46:20.354Z,37.57
2024-05-09T08:47:20.229Z,37.53
2024-05-09T08:48:20.391Z,37.55
2024-05-09T08:49:20.277Z,37.55
2024-05-09T08:50:29.252Z,37.54
2024-05-09T08:51:21.174Z,37.56
2024-05-09T08:52:20.183Z,37.54
2024-05-09T08:53:20.247Z,37.57
2024-05-09T08:54:20.188Z,37.54
2024-05-09T08:55:20.276Z,37.54
2024-05-09T08:56:20.181Z,37.58
2024-05-09T08:57:20.189Z,37.56
2024-05-09T08:58:20.601Z,37.57
2024-05-09T08:59:20.196Z,37.57
2024-05-09T09:00:29.593Z,37.54
2024-05-09T09:01:21.342Z,37.54
2024-05-09T09:02:20.328Z,37.55
2024-05-09T09:03:20.421Z,37.54
2024-05-09T09:04:20.294Z,37.57
2024-05-09T09:05:20.309Z,37.53
2024-05-09T09:06:20.194Z,37.52
2024-05-09T09:07:20.233Z,37.49
2024-05-09T09:08:20.254Z,37.52
2024-05-09T09:09:20.199Z,37.49
2024-05-09T09:10:29.036Z,37.44
2024-05-09T09:11:21.283Z,37.44
2024-05-09T09:12:20.198Z,37.45
2024-05-09T09:13:20.215Z,37.43
2024-05-09T09:14:20.207Z,37.44
2024-05-09T09:15:20.212Z,37.43
2024-05-09T09:16:20.340Z,37.44
2024-05-09T09:17:20.236Z,37.45
2024-05-09T09:18:20.275Z,37.44
2024-05-09T09:19:20.310Z,37.38
2024-05-09T09:20:26.357Z,37.38
2024-05-09T09:21:21.256Z,37.42
2024-05-09T09:22:20.248Z,37.45
2024-05-09T09:23:20.238Z,37.42
2024-05-09T09:24:20.224Z,37.45
2024-05-09T09:25:20.248Z,37.44
2024-05-09T09:26:20.223Z,37.45
2024-05-09T09:27:20.215Z,37.45
2024-05-09T09:28:20.270Z,37.41
2024-05-09T09:29:20.218Z,37.35
2024-05-09T09:30:31.765Z,37.34
2024-05-09T09:31:21.276Z,37.29
2024-05-09T09:32:20.379Z,37.33
2024-05-09T09:33:20.517Z,37.28
2024-05-09T09:34:20.344Z,37.24
2024-05-09T09:35:20.242Z,37.25
2024-05-09T09:36:20.258Z,37.20
2024-05-09T09:37:20.321Z,37.23
2024-05-09T09:38:20.274Z,37.16
2024-05-09T09:39:20.350Z,37.19
2024-05-09T09:40:22.341Z,37.17
2024-05-09T09:41:21.259Z,37.09
2024-05-09T09:42:20.255Z,37.17
2024-05-09T09:43:20.419Z,37.07
2024-05-09T09:44:20.286Z,37.08
2024-05-09T09:45:20.290Z,37.08
2024-05-09T09:46:20.333Z,37.09
2024-05-09T09:47:20.337Z,37.06
2024-05-09T09:48:20.504Z,37.09
2024-05-09T09:49:20.323Z,37.12
2024-05-09T09:50:27.362Z,37.13
2024-05-09T09:51:21.278Z,37.15
2024-05-09T09:52:20.383Z,37.13
2024-05-09T09:53:20.396Z,37.13
2024-05-09T09:54:20.315Z,37.12
2024-05-09T09:55:20.369Z,37.13
2024-05-09T09:56:20.335Z,37.10
2024-05-09T09:57:20.269Z,37.11
2024-05-09T09:58:20.378Z,37.14
2024-05-09T09:59:20.281Z,37.14
2024-05-09T10:00:26.816Z,37.09
2024-05-09T10:01:21.400Z,37.08
2024-05-09T10:02:20.441Z,37.13
2024-05-09T10:03:20.437Z,37.12
2024-05-09T10:04:20.390Z,37.13
2024-05-09T10:05:20.347Z,37.11
2024-05-09T10:06:20.335Z,37.09
2024-05-09T10:07:20.361Z,37.09
2024-05-09T10:08:20.302Z,37.07
2024-05-09T10:09:20.329Z,37.07
2024-05-09T10:10:27.067Z,37.06
2024-05-09T10:11:21.371Z,37.09
2024-05-09T10:12:20.352Z,37.09
2024-05-09T10:13:20.410Z,37.09
2024-05-09T10:14:20.316Z,37.11
2024-05-09T10:15:20.357Z,37.10
2024-05-09T10:16:20.409Z,37.12
2024-05-09T10:17:20.333Z,37.11
2024-05-09T10:18:20.393Z,37.12
2024-05-09T10:19:20.496Z,37.09
2024-05-09T10:20:24.719Z,37.09
2024-05-09T10:21:21.342Z,37.06
2024-05-09T10:22:20.374Z,37.11
2024-05-09T10:23:20.325Z,37.08
2024-05-09T10:24:20.337Z,37.05
2024-05-09T10:25:20.375Z,37.04
2024-05-09T10:26:20.346Z,37.02
2024-05-09T10:27:20.347Z,37.05
2024-05-09T10:28:20.381Z,37.01
2024-05-09T10:29:20.349Z,37.04
2024-05-09T10:30:26.116Z,37.03
2024-05-09T10:31:21.367Z,36.97
2024-05-09T10:32:20.426Z,36.91
2024-05-09T10:33:20.620Z,36.94
2024-05-09T10:34:20.723Z,36.90
2024-05-09T10:35:20.374Z,36.85
2024-05-09T10:36:20.332Z,36.88
2024-05-09T10:37:20.409Z,36.88
2024-05-09T10:38:20.803Z,36.92
2024-05-09T10:39:20.331Z,36.90
2024-05-09T10:40:26.397Z,36.86
2024-05-09T10:41:22.308Z,36.84
2024-05-09T10:42:20.362Z,36.82
2024-05-09T10:43:20.421Z,36.85
2024-05-09T10:44:20.352Z,36.86
2024-05-09T10:45:20.353Z,36.84
2024-05-09T10:46:20.577Z,36.90
2024-05-09T10:47:20.409Z,36.87
2024-05-09T10:48:20.456Z,36.86
2024-05-09T10:49:20.546Z,36.85
2024-05-09T10:50:28.069Z,36.86
2024-05-09T10:51:21.396Z,36.77
2024-05-09T10:52:20.433Z,36.82
2024-05-09T10:53:20.383Z,36.78
2024-05-09T10:54:20.388Z,36.77
2024-05-09T10:55:20.508Z,36.72
2024-05-09T10:56:20.374Z,36.74
2024-05-09T10:57:20.383Z,36.76
2024-05-09T10:58:20.431Z,36.79
2024-05-09T10:59:20.386Z,36.77
2024-05-09T11:00:27.565Z,36.82
2024-05-09T11:01:21.426Z,36.76
2024-05-09T11:02:20.480Z,36.78
2024-05-09T11:03:20.475Z,36.76
2024-05-09T11:04:20.563Z,36.77
2024-05-09T11:05:20.519Z,36.72
2024-05-09T11:06:20.396Z,36.74
2024-05-09T11:07:20.540Z,36.71
2024-05-09T11:08:20.408Z,36.74
2024-05-09T11:09:20.433Z,36.75
2024-05-09T11:10:27.405Z,36.77
2024-05-09T11:11:21.414Z,36.78
2024-05-09T11:12:22.857Z,36.74
2024-05-09T11:13:20.454Z,36.73
2024-05-09T11:14:20.415Z,36.77
2024-05-09T11:15:20.410Z,36.78
2024-05-09T11:16:21.046Z,36.73
2024-05-09T11:17:20.567Z,36.76
2024-05-09T11:18:24.227Z,36.76
2024-05-09T11:19:20.598Z,36.79
2024-05-09T11:20:26.915Z,36.80
2024-05-09T11:21:21.419Z,36.79
2024-05-09T11:22:20.449Z,36.80
2024-05-09T11:23:20.430Z,36.81
2024-05-09T11:24:20.433Z,36.83
2024-05-09T11:25:20.496Z,36.82
2024-05-09T11:26:20.431Z,36.83
2024-05-09T11:27:20.431Z,36.88
2024-05-09T11:28:20.471Z,36.87
2024-05-09T11:29:20.439Z,36.91
2024-05-09T11:30:27.043Z,36.91
2024-05-09T11:31:21.763Z,36.92
2024-05-09T11:32:20.477Z,36.93
2024-05-09T11:33:20.512Z,36.94
2024-05-09T11:34:20.536Z,36.93
2024-05-09T11:35:20.442Z,36.94
2024-05-09T11:36:20.466Z,36.95
2024-05-09T11:37:20.485Z,36.95
2024-05-09T11:38:20.846Z,36.96
2024-05-09T11:39:20.442Z,36.97
2024-05-09T11:40:25.426Z,36.99
2024-05-09T11:41:21.465Z,37.01
2024-05-09T11:42:20.450Z,36.97
2024-05-09T11:43:21.051Z,37.00
2024-05-09T11:44:20.464Z,36.98
2024-05-09T11:45:20.464Z,36.92
2024-05-09T11:46:20.590Z,36.90
2024-05-09T11:47:20.500Z,36.82
2024-05-09T11:48:20.687Z,36.86
2024-05-09T11:49:21.471Z,36.86
2024-05-09T11:50:27.141Z,36.87
2024-05-09T11:51:21.484Z,36.90
2024-05-09T11:52:20.560Z,36.86
2024-05-09T11:53:20.825Z,36.83
2024-05-09T11:54:21.324Z,36.80
2024-05-09T11:55:21.160Z,36.76
2024-05-09T11:56:20.494Z,36.74
2024-05-09T11:57:20.478Z,36.80
2024-05-09T11:58:20.567Z,36.82
2024-05-09T11:59:20.485Z,36.78
2024-05-09T12:00:29.173Z,36.77
2024-05-09T12:01:23.076Z,36.77
2024-05-09T12:02:20.655Z,36.76
2024-05-09T12:03:20.550Z,36.74
2024-05-09T12:04:20.689Z,36.73
2024-05-09T12:05:20.918Z,36.72
2024-05-09T12:06:20.513Z,36.72
2024-05-09T12:07:20.542Z,36.73
2024-05-09T12:08:20.520Z,36.70
2024-05-09T12:09:20.493Z,36.69
2024-05-09T12:10:26.026Z,36.64
2024-05-09T12:11:21.534Z,36.69
2024-05-09T12:12:20.523Z,36.65
2024-05-09T12:13:20.973Z,36.66
2024-05-09T12:14:20.552Z,36.61
2024-05-09T12:15:20.634Z,36.62
2024-05-09T12:16:20.739Z,36.60
2024-05-09T12:17:20.526Z,36.60
2024-05-09T12:18:20.544Z,36.59
2024-05-09T12:19:20.605Z,36.57
2024-05-09T12:20:28.562Z,36.58
2024-05-09T12:21:21.523Z,36.55
2024-05-09T12:22:20.572Z,36.53
2024-05-09T12:23:20.533Z,36.50
2024-05-09T12:24:20.551Z,36.51
2024-05-09T12:25:20.626Z,36.48
2024-05-09T12:26:20.564Z,36.47
2024-05-09T12:27:20.543Z,36.48
2024-05-09T12:28:20.837Z,36.45
2024-05-09T12:29:20.536Z,36.46
2024-05-09T12:30:32.491Z,36.41
2024-05-09T12:31:21.626Z,36.46
2024-05-09T12:32:20.576Z,36.44
2024-05-09T12:33:20.723Z,36.46
2024-05-09T12:34:20.625Z,36.45
2024-05-09T12:35:20.567Z,36.47
2024-05-09T12:36:20.541Z,36.49
2024-05-09T12:37:20.582Z,36.46
2024-05-09T12:38:20.880Z,36.46
2024-05-09T12:39:20.575Z,36.45
2024-05-09T12:40:30.670Z,36.46
2024-05-09T12:41:21.630Z,36.47
2024-05-09T12:42:27.161Z,36.43
2024-05-09T12:43:22.006Z,36.46
2024-05-09T12:44:20.604Z,36.45
2024-05-09T12:45:20.601Z,36.44
2024-05-09T12:46:20.743Z,36.45
2024-05-09T12:47:20.704Z,36.45
2024-05-09T12:48:20.779Z,36.44
2024-05-09T12:49:20.861Z,36.44
2024-05-09T12:50:29.153Z,36.43
2024-05-09T12:51:21.637Z,36.44
2024-05-09T12:52:20.685Z,36.45
2024-05-09T12:53:20.658Z,36.47
2024-05-09T12:54:20.630Z,36.45
2024-05-09T12:55:20.687Z,36.45
2024-05-09T12:56:20.631Z,36.44
2024-05-09T12:57:20.638Z,36.44
2024-05-09T12:58:20.732Z,36.43
2024-05-09T12:59:20.749Z,36.44
2024-05-09T13:00:27.742Z,36.42